Terminal Aerodrome Forecast
Issued by NWS

Home | Current Version | Previous Version | Text Only | Print | Product List | Glossary On
Versions: 1 2 3 4 5 6 7 8 9 10 11 12 13 14
000
FTUS43 KAPX 152300
TAFAPN
TAF
KAPN 152320Z 1600/1624 VRB03KT P6SM SCT100
     FM160700 28004KT P6SM SCT040
     FM161700 26009KT P6SM FEW050 SCT150=

USA.gov is the U.S. government's official web portal to all federal, state and local government web resources and services.